Главная страница
METAR-TAF:

METAR-TAF

Аэропорты :

Хараре, Зимбабве

широта: 17-55S, долгота: 031-08E, высота над уровнем моря: 1479 м

Текущие метеонаблюдения

Эта сводка был подготовлена 6 часа и 34 минут назад, в 08:00 UTC
Ветер 7 Узел от юго-восточный, изменяющийся между восточный и южный
Температура 21°C
Влажность 33%
Давление 1026 hPa
Видимость 10 км и более
Нет облачности ниже 1500 м, и нет кучево-дождевой облачности

METAR: FVHA 250800Z 14007KT 080V190 CAVOK 21/04 Q1026 NOSIG

Время: 16:34 (14:34 UTC)

Прогноз

Эта сводка был подготовлена 10 часа и 34 минут назад, в 04:00 UTC
Прогноз действительный с 25-го 06 UTC до 26-го 12 UTC
Ветер 4 Узел от восточный
Видимость 10 км и более
Нет облачности ниже 1500 м, и нет кучево-дождевой облачности

TAF: FVHA 250400Z 2506/2612 08004KT CAVOK

Метеонаблюдения и прогнозы для более 4000 аэропортов (сводки METAR и TAF).

Имеющиеся станции представлены на карте желтыми и красными точками.

Чтобы увидеть название станции, наведите на нее мышь.

Затем щелкните, чтобы увидеть метеонаблюдения и метеопрогнозы.

Управление картой: чтобы увеличить масштаб, щелкните зеленые кнопки с черным крестиком; чтобы уменьшить масштаб, щелкните зеленую кнопку с тире; для просмотра соседних карт щелкайте зеленые стрелки.


METAR-TAF: